createdAt,value
2019-05-30T00:00:28.748Z,1.82
2019-05-30T00:02:30.041Z,2.77
2019-05-30T00:04:31.419Z,2.40
2019-05-30T00:06:32.722Z,1.60
2019-05-30T00:08:34.260Z,0.95
2019-05-30T00:10:35.817Z,3.83
2019-05-30T00:12:37.104Z,0.85
2019-05-30T00:14:38.446Z,6.15
2019-05-30T00:16:39.725Z,2.05
2019-05-30T00:18:41.004Z,2.72
2019-05-30T00:20:42.362Z,1.65
2019-05-30T00:22:43.630Z,2.85
2019-05-30T00:24:44.894Z,1.85
2019-05-30T00:26:46.168Z,1.75
2019-05-30T00:28:47.730Z,1.22
2019-05-30T00:32:50.606Z,2.12
2019-05-30T00:34:51.898Z,1.10
2019-05-30T00:36:55.577Z,4.05
2019-05-30T00:38:57.674Z,3.22
2019-05-30T00:41:00.009Z,2.70
2019-05-30T00:43:02.110Z,1.67
2019-05-30T00:45:17.860Z,1.90
2019-05-30T00:47:07.693Z,1.57
2019-05-30T00:49:08.954Z,2.33
2019-05-30T00:51:10.221Z,2.37
2019-05-30T00:53:11.484Z,1.70
2019-05-30T00:55:12.949Z,1.12
2019-05-30T00:57:14.210Z,1.50
2019-05-30T00:59:15.481Z,1.95
2019-05-30T01:01:16.753Z,2.12
2019-05-30T01:03:18.215Z,1.10
2019-05-30T01:05:19.486Z,1.05
2019-05-30T01:07:21.006Z,1.50
2019-05-30T01:09:22.318Z,0.90
2019-05-30T01:11:23.966Z,5.05
2019-05-30T01:15:26.661Z,1.30
2019-05-30T01:17:27.934Z,2.25
2019-05-30T01:19:30.651Z,1.50
2019-05-30T01:23:33.058Z,3.27
2019-05-30T01:25:34.327Z,1.87
2019-05-30T01:27:35.598Z,1.65
2019-05-30T01:29:36.885Z,2.75
2019-05-30T01:31:38.222Z,1.90
2019-05-30T01:33:39.829Z,1.75
2019-05-30T01:35:41.207Z,1.12
2019-05-30T01:37:42.482Z,2.42
2019-05-30T01:39:43.754Z,1.50
2019-05-30T01:41:45.028Z,2.00
2019-05-30T01:43:46.293Z,2.50
2019-05-30T01:45:48.654Z,2.00
2019-05-30T01:47:49.958Z,1.87
2019-05-30T01:49:51.309Z,1.32
2019-05-30T01:51:52.586Z,4.20
2019-05-30T01:53:53.861Z,1.10
2019-05-30T01:55:55.376Z,2.62
2019-05-30T01:57:56.934Z,1.72
2019-05-30T02:02:01.086Z,1.67
2019-05-30T02:04:03.313Z,1.95
2019-05-30T02:06:05.557Z,3.02
2019-05-30T02:08:07.353Z,2.27
2019-05-30T02:10:10.202Z,1.20
2019-05-30T02:12:11.733Z,2.47
2019-05-30T02:14:13.013Z,1.70
2019-05-30T02:16:14.280Z,1.47
2019-05-30T02:18:15.566Z,2.20
2019-05-30T02:20:17.125Z,3.22
2019-05-30T02:22:18.400Z,2.30
2019-05-30T02:24:19.655Z,1.67
2019-05-30T02:26:20.926Z,1.80
2019-05-30T02:28:22.463Z,1.50
2019-05-30T02:30:23.726Z,1.70
2019-05-30T02:32:25.062Z,2.33
2019-05-30T02:34:26.578Z,1.40
2019-05-30T02:36:27.962Z,1.65
2019-05-30T02:38:29.614Z,1.75
2019-05-30T02:42:33.036Z,1.87
2019-05-30T02:46:35.513Z,1.60
2019-05-30T02:48:54.750Z,2.27
2019-05-30T02:50:40.996Z,2.12
2019-05-30T02:52:42.415Z,2.87
2019-05-30T02:54:43.832Z,3.30
2019-05-30T02:56:45.196Z,2.58
2019-05-30T02:58:46.466Z,2.65
2019-05-30T03:00:48.002Z,1.65
2019-05-30T03:02:49.588Z,2.65
2019-05-30T03:04:50.852Z,2.22
2019-05-30T03:06:53.478Z,2.72
2019-05-30T03:08:54.768Z,3.25
2019-05-30T03:10:56.245Z,2.62
2019-05-30T03:12:57.526Z,1.30
2019-05-30T03:14:59.047Z,2.42
2019-05-30T03:17:02.348Z,2.35
2019-05-30T03:19:03.859Z,4.92
2019-05-30T03:23:09.930Z,2.25
2019-05-30T03:25:15.607Z,2.52
2019-05-30T03:27:14.752Z,2.00
2019-05-30T03:29:16.131Z,2.47
2019-05-30T03:31:27.803Z,2.77
2019-05-30T03:33:37.563Z,3.98
2019-05-30T03:35:30.383Z,1.90
2019-05-30T03:37:30.853Z,3.12
2019-05-30T03:39:32.569Z,2.12
2019-05-30T03:41:33.925Z,3.05
2019-05-30T03:43:36.261Z,4.33
2019-05-30T03:45:38.219Z,2.75
2019-05-30T03:47:43.591Z,3.02
2019-05-30T03:49:48.446Z,3.08
2019-05-30T03:51:51.893Z,2.83
2019-05-30T03:53:53.752Z,2.58
2019-05-30T03:55:59.815Z,7.25
2019-05-30T03:58:14.343Z,2.87
2019-05-30T04:00:26.306Z,4.62
2019-05-30T04:02:55.444Z,5.55
2019-05-30T04:04:52.917Z,2.15
2019-05-30T04:07:03.754Z,4.08
2019-05-30T04:09:07.375Z,4.00
2019-05-30T04:11:14.746Z,2.80
2019-05-30T04:13:45.740Z,4.87
2019-05-30T04:15:47.113Z,4.30
2019-05-30T04:17:50.437Z,3.65
2019-05-30T04:19:52.039Z,5.35
2019-05-30T04:21:53.303Z,5.97
2019-05-30T04:23:54.842Z,4.40
2019-05-30T04:26:00.129Z,3.33
2019-05-30T04:27:59.321Z,3.12
2019-05-30T04:30:00.686Z,4.90
2019-05-30T04:32:02.000Z,4.50
2019-05-30T04:34:03.544Z,4.97
2019-05-30T04:38:06.047Z,3.93
2019-05-30T04:40:08.546Z,3.65
2019-05-30T04:42:11.471Z,3.90
2019-05-30T04:44:14.471Z,3.67
2019-05-30T04:46:18.673Z,4.62
2019-05-30T04:48:21.268Z,7.92
2019-05-30T04:50:22.812Z,7.22
2019-05-30T04:52:25.069Z,6.53
2019-05-30T04:54:27.685Z,4.92
2019-05-30T04:56:28.962Z,3.98
2019-05-30T04:58:30.342Z,3.30
2019-05-30T05:00:31.773Z,3.85
2019-05-30T05:02:33.040Z,5.50
2019-05-30T05:04:34.326Z,3.17
2019-05-30T05:06:35.693Z,7.10
2019-05-30T05:08:37.078Z,4.20
2019-05-30T05:10:38.604Z,5.92
2019-05-30T05:12:39.857Z,3.60
2019-05-30T05:14:41.168Z,6.90
2019-05-30T05:16:42.439Z,3.87
2019-05-30T05:18:43.758Z,5.00
2019-05-30T05:20:45.019Z,4.33
2019-05-30T05:22:46.540Z,5.78
2019-05-30T05:24:47.823Z,6.37
2019-05-30T05:26:50.490Z,5.20
2019-05-30T05:28:51.831Z,5.37
2019-05-30T05:30:53.102Z,4.15
2019-05-30T05:32:54.392Z,7.03
2019-05-30T05:34:55.667Z,3.92
2019-05-30T05:36:56.952Z,7.33
2019-05-30T05:38:58.332Z,4.83
2019-05-30T05:41:00.627Z,8.93
2019-05-30T05:43:01.890Z,6.10
2019-05-30T05:45:05.693Z,4.17
2019-05-30T05:47:07.004Z,6.87
2019-05-30T05:49:08.449Z,5.28
2019-05-30T05:51:09.727Z,5.58
2019-05-30T05:53:11.006Z,5.08
2019-05-30T05:55:12.487Z,4.25
2019-05-30T05:57:13.746Z,4.70
2019-05-30T05:59:15.062Z,8.40
2019-05-30T06:01:17.309Z,3.67
2019-05-30T06:03:19.194Z,4.75
2019-05-30T06:05:22.272Z,4.15
2019-05-30T06:07:24.580Z,5.78
2019-05-30T06:09:25.938Z,5.80
2019-05-30T06:11:27.223Z,4.35
2019-05-30T06:13:29.055Z,6.20
2019-05-30T06:15:30.748Z,5.03
2019-05-30T06:19:46.055Z,6.97
2019-05-30T06:21:36.777Z,3.58
2019-05-30T06:23:38.065Z,4.72
2019-05-30T06:25:41.298Z,7.78
2019-05-30T06:27:42.570Z,3.75
2019-05-30T06:29:43.853Z,5.62
2019-05-30T06:31:48.465Z,3.80
2019-05-30T06:33:49.849Z,4.72
2019-05-30T06:35:51.261Z,6.37
2019-05-30T06:37:52.898Z,4.00
2019-05-30T06:39:54.242Z,6.50
2019-05-30T06:41:55.515Z,5.20
2019-05-30T06:43:57.091Z,4.20
2019-05-30T06:45:58.470Z,4.15
2019-05-30T06:47:59.774Z,5.67
2019-05-30T06:50:01.453Z,3.60
2019-05-30T06:52:02.788Z,5.55
2019-05-30T06:54:04.080Z,3.77
2019-05-30T06:56:05.397Z,4.35
2019-05-30T06:58:06.675Z,3.98
2019-05-30T07:00:08.497Z,3.45
2019-05-30T07:02:10.258Z,4.75
2019-05-30T07:04:12.441Z,4.47
2019-05-30T07:06:15.122Z,3.67
2019-05-30T07:08:17.153Z,3.87
2019-05-30T07:10:19.982Z,4.30
2019-05-30T07:12:22.974Z,3.95
2019-05-30T07:14:25.212Z,3.75
2019-05-30T07:16:27.336Z,5.25
2019-05-30T07:18:33.175Z,2.85
2019-05-30T07:20:33.736Z,5.75
2019-05-30T07:22:35.247Z,3.45
2019-05-30T07:24:36.592Z,6.67
2019-05-30T07:26:37.979Z,4.72
2019-05-30T07:28:39.354Z,5.17
2019-05-30T07:30:40.642Z,4.65
2019-05-30T07:32:41.902Z,4.28
2019-05-30T07:34:45.908Z,3.83
2019-05-30T07:36:46.418Z,4.45
2019-05-30T07:38:47.686Z,4.40
2019-05-30T07:40:48.969Z,7.95
2019-05-30T07:42:50.238Z,5.67
2019-05-30T07:44:51.562Z,4.05
2019-05-30T07:46:52.834Z,4.80
2019-05-30T07:48:54.128Z,3.83
2019-05-30T07:50:55.422Z,6.12
2019-05-30T07:52:56.691Z,3.50
2019-05-30T07:54:58.088Z,3.72
2019-05-30T07:56:59.421Z,7.65
2019-05-30T07:59:00.701Z,6.47
2019-05-30T08:01:01.971Z,2.40
2019-05-30T08:03:03.333Z,4.72
2019-05-30T08:05:20.739Z,6.17
2019-05-30T08:07:08.809Z,4.40
2019-05-30T08:09:10.186Z,7.00
2019-05-30T08:11:11.471Z,5.55
2019-05-30T08:13:12.833Z,4.92
2019-05-30T08:15:15.803Z,6.95
2019-05-30T08:17:17.113Z,5.67
2019-05-30T08:19:18.703Z,3.20
2019-05-30T08:23:21.525Z,3.77
2019-05-30T08:25:22.898Z,6.55
2019-05-30T08:27:24.238Z,4.17
2019-05-30T08:29:25.540Z,3.20
2019-05-30T08:31:28.486Z,4.78
2019-05-30T08:33:30.005Z,4.90
2019-05-30T08:35:43.519Z,5.30
2019-05-30T08:37:35.166Z,4.53
2019-05-30T08:39:37.372Z,6.47
2019-05-30T08:41:39.533Z,3.30
2019-05-30T08:43:40.888Z,6.35
2019-05-30T08:45:42.502Z,4.87
2019-05-30T08:47:43.766Z,3.77
2019-05-30T08:49:45.435Z,6.40
2019-05-30T08:53:48.415Z,5.30
2019-05-30T08:55:49.675Z,5.80
2019-05-30T08:57:51.251Z,7.67
2019-05-30T09:01:53.671Z,6.47
2019-05-30T09:03:54.930Z,3.62
2019-05-30T09:06:03.348Z,3.98
2019-05-30T09:07:59.560Z,4.62
2019-05-30T09:10:04.391Z,3.83
2019-05-30T09:12:05.675Z,4.87
2019-05-30T09:14:07.014Z,4.80
2019-05-30T09:16:08.294Z,3.52
2019-05-30T09:18:09.558Z,4.55
2019-05-30T09:20:13.015Z,3.42
2019-05-30T09:22:14.289Z,4.15
2019-05-30T09:24:15.598Z,3.92
2019-05-30T09:26:17.271Z,3.15
2019-05-30T09:30:20.694Z,5.05
2019-05-30T09:32:22.043Z,3.47
2019-05-30T09:34:23.300Z,3.15
2019-05-30T09:36:27.013Z,5.22
2019-05-30T09:38:28.646Z,5.30
2019-05-30T09:40:33.482Z,6.20
2019-05-30T09:42:34.762Z,5.50
2019-05-30T09:44:36.128Z,2.83
2019-05-30T09:46:37.415Z,4.50
2019-05-30T09:48:38.690Z,5.83
2019-05-30T09:50:41.982Z,6.35
2019-05-30T09:52:43.620Z,4.60
2019-05-30T09:54:45.916Z,3.05
2019-05-30T09:56:48.471Z,4.47
2019-05-30T09:58:49.852Z,2.85
2019-05-30T10:00:52.265Z,3.70
2019-05-30T10:02:53.706Z,3.40
2019-05-30T10:04:54.969Z,4.37
2019-05-30T10:06:56.313Z,3.40
2019-05-30T10:09:04.480Z,5.10
2019-05-30T10:11:08.270Z,4.17
2019-05-30T10:13:09.683Z,4.30
2019-05-30T10:15:11.574Z,4.00
2019-05-30T10:17:13.015Z,5.22
2019-05-30T10:19:14.282Z,3.22
2019-05-30T10:21:15.593Z,4.25
2019-05-30T10:23:17.176Z,4.67
2019-05-30T10:27:20.114Z,2.60
2019-05-30T10:29:21.435Z,3.35
2019-05-30T10:31:22.794Z,4.65
2019-05-30T10:33:24.144Z,4.33
2019-05-30T10:35:25.494Z,3.40
2019-05-30T10:37:26.774Z,4.65
2019-05-30T10:39:32.307Z,3.00
2019-05-30T10:41:33.587Z,4.87
2019-05-30T10:43:35.935Z,3.70
2019-05-30T10:45:38.730Z,3.12
2019-05-30T10:47:40.180Z,4.78
2019-05-30T10:49:41.571Z,3.45
2019-05-30T10:51:42.941Z,5.80
2019-05-30T10:53:46.702Z,3.47
2019-05-30T10:55:48.202Z,7.10
2019-05-30T10:57:50.075Z,7.55
2019-05-30T10:59:52.566Z,7.10
2019-05-30T11:01:54.504Z,4.60
2019-05-30T11:03:56.967Z,4.83
2019-05-30T11:06:11.648Z,4.08
2019-05-30T11:08:22.869Z,3.00
2019-05-30T11:10:37.584Z,2.98
2019-05-30T11:12:38.845Z,4.08
2019-05-30T11:14:40.145Z,6.05
2019-05-30T11:16:41.470Z,4.20
2019-05-30T11:18:42.933Z,4.65
2019-05-30T11:20:47.888Z,3.77
2019-05-30T11:22:50.095Z,4.83
2019-05-30T11:24:52.699Z,4.67
2019-05-30T11:26:55.508Z,4.60
2019-05-30T11:28:57.374Z,4.05
2019-05-30T11:30:58.950Z,4.20
2019-05-30T11:33:00.318Z,3.87
2019-05-30T11:35:02.354Z,7.05
2019-05-30T11:37:18.213Z,4.50
2019-05-30T11:39:07.524Z,5.08
2019-05-30T11:41:08.783Z,3.47
2019-05-30T11:43:10.096Z,7.90
2019-05-30T11:45:12.049Z,5.50
2019-05-30T11:47:13.328Z,5.10
2019-05-30T11:49:14.924Z,4.20
2019-05-30T11:53:17.697Z,5.67
2019-05-30T11:55:18.974Z,5.47
2019-05-30T11:57:20.253Z,5.25
2019-05-30T11:59:21.534Z,4.30
2019-05-30T12:01:22.806Z,7.33
2019-05-30T12:03:24.111Z,6.00
2019-05-30T12:05:25.408Z,7.33
2019-05-30T12:07:35.703Z,6.05
2019-05-30T12:09:29.954Z,5.35
2019-05-30T12:11:31.583Z,7.25
2019-05-30T12:13:33.612Z,7.22
2019-05-30T12:15:34.869Z,9.25
2019-05-30T12:17:36.176Z,9.25
2019-05-30T12:19:37.467Z,8.33
2019-05-30T12:21:38.849Z,8.80
2019-05-30T12:23:40.194Z,6.90
2019-05-30T12:25:41.806Z,7.60
2019-05-30T12:29:44.470Z,7.08
2019-05-30T12:35:15.025Z,8.10
2019-05-30T12:37:16.456Z,6.75
2019-05-30T12:39:18.140Z,7.30
2019-05-30T12:43:20.674Z,13.30
2019-05-30T12:45:22.653Z,11.65
2019-05-30T12:47:23.923Z,7.20
2019-05-30T12:49:25.296Z,7.53
2019-05-30T12:51:26.711Z,8.88
2019-05-30T12:53:27.998Z,6.80
2019-05-30T12:55:29.280Z,8.25
2019-05-30T12:57:30.553Z,9.20
2019-05-30T12:59:32.189Z,8.58
2019-05-30T13:01:34.547Z,8.83
2019-05-30T13:03:35.904Z,11.40
2019-05-30T13:05:37.492Z,8.50
2019-05-30T13:07:40.133Z,8.30
2019-05-30T13:09:41.659Z,8.33
2019-05-30T13:11:43.025Z,11.83
2019-05-30T13:13:44.292Z,10.30
2019-05-30T13:15:45.695Z,10.65
2019-05-30T13:17:46.983Z,10.20
2019-05-30T13:19:48.258Z,10.70
2019-05-30T13:21:49.629Z,13.93
2019-05-30T13:23:50.923Z,10.65
2019-05-30T13:25:52.312Z,11.60
2019-05-30T13:27:55.792Z,12.85
2019-05-30T13:29:57.979Z,11.40
2019-05-30T13:32:00.507Z,11.60
2019-05-30T13:34:02.934Z,11.68
2019-05-30T13:36:05.136Z,15.58
2019-05-30T13:38:07.395Z,11.48
2019-05-30T13:40:24.449Z,14.30
2019-05-30T13:42:15.443Z,13.35
2019-05-30T13:44:16.807Z,14.83
2019-05-30T13:46:18.171Z,14.33
2019-05-30T13:48:19.814Z,13.05
2019-05-30T13:50:21.130Z,16.97
2019-05-30T13:52:22.658Z,13.88
2019-05-30T13:54:25.936Z,16.02
2019-05-30T13:56:27.477Z,14.55
2019-05-30T13:58:29.107Z,16.37
2019-05-30T14:02:31.981Z,17.37
2019-05-30T14:04:35.786Z,18.90
2019-05-30T14:06:37.081Z,22.48
2019-05-30T14:08:41.631Z,18.75
2019-05-30T14:10:41.734Z,20.27
2019-05-30T14:12:43.307Z,17.02
2019-05-30T14:16:45.814Z,19.15
2019-05-30T14:18:47.298Z,22.48
2019-05-30T14:20:48.590Z,20.65
2019-05-30T14:22:49.854Z,20.40
2019-05-30T14:24:51.151Z,19.00
2019-05-30T14:26:52.746Z,20.35
2019-05-30T14:30:55.210Z,17.63
2019-05-30T14:32:56.481Z,21.50
2019-05-30T14:34:58.134Z,18.50
2019-05-30T14:36:59.635Z,25.55
2019-05-30T14:39:00.906Z,20.92
2019-05-30T14:41:02.909Z,20.70
2019-05-30T14:43:05.235Z,19.55
2019-05-30T14:45:08.912Z,22.73
2019-05-30T14:47:12.492Z,24.63
2019-05-30T14:49:14.028Z,20.82
2019-05-30T14:51:15.370Z,23.30
2019-05-30T14:53:17.135Z,20.37
2019-05-30T14:55:19.955Z,22.85
2019-05-30T14:57:21.615Z,21.25
2019-05-30T14:59:22.970Z,18.48
2019-05-30T15:01:24.351Z,22.17
2019-05-30T15:03:27.438Z,19.75
2019-05-30T15:05:28.799Z,18.35
2019-05-30T15:07:30.155Z,22.27
2019-05-30T15:09:31.489Z,20.15
2019-05-30T15:11:32.870Z,16.90
2019-05-30T15:15:35.630Z,20.12
2019-05-30T15:17:36.907Z,18.73
2019-05-30T15:19:38.202Z,15.53
2019-05-30T15:21:39.606Z,18.95
2019-05-30T15:23:40.859Z,15.93
2019-05-30T15:25:42.676Z,18.50
2019-05-30T15:27:44.011Z,19.20
2019-05-30T15:29:45.298Z,17.10
2019-05-30T15:31:46.865Z,16.32
2019-05-30T15:33:48.347Z,19.05
2019-05-30T15:35:49.792Z,19.10
2019-05-30T15:39:53.006Z,23.07
2019-05-30T15:41:54.589Z,19.45
2019-05-30T15:43:56.107Z,22.30
2019-05-30T15:47:58.985Z,20.30
2019-05-30T15:50:01.358Z,24.32
2019-05-30T15:52:02.982Z,20.50
2019-05-30T15:56:05.619Z,20.88
2019-05-30T15:58:07.614Z,18.30
2019-05-30T16:00:14.071Z,20.88
2019-05-30T16:02:18.232Z,23.32
2019-05-30T16:04:20.521Z,24.27
2019-05-30T16:06:22.295Z,20.05
2019-05-30T16:08:24.074Z,21.70
2019-05-30T16:10:25.438Z,20.85
2019-05-30T16:12:26.824Z,19.95
2019-05-30T16:14:30.088Z,21.73
2019-05-30T16:16:39.315Z,22.67
2019-05-30T16:18:34.843Z,23.45
2019-05-30T16:22:37.293Z,21.70
2019-05-30T16:24:38.745Z,22.50
2019-05-30T16:26:40.075Z,24.82
2019-05-30T16:28:41.455Z,26.05
2019-05-30T16:30:43.057Z,23.77
2019-05-30T16:34:45.586Z,25.15
2019-05-30T16:36:46.859Z,25.23
2019-05-30T16:38:48.242Z,24.05
2019-05-30T16:40:49.591Z,22.50
2019-05-30T16:42:50.935Z,24.30
2019-05-30T16:44:52.201Z,25.80
2019-05-30T16:46:53.517Z,22.32
2019-05-30T16:48:55.120Z,22.40
2019-05-30T16:52:57.905Z,20.55
2019-05-30T16:54:59.193Z,21.25
2019-05-30T16:57:00.566Z,22.65
2019-05-30T16:59:01.890Z,20.97
2019-05-30T17:01:04.177Z,23.02
2019-05-30T17:03:05.457Z,21.82
2019-05-30T17:05:08.083Z,22.25
2019-05-30T17:07:12.374Z,22.48
2019-05-30T17:09:15.081Z,24.30
2019-05-30T17:11:17.334Z,24.23
2019-05-30T17:13:19.621Z,22.77
2019-05-30T17:15:21.986Z,24.80
2019-05-30T17:17:24.217Z,24.07
2019-05-30T17:19:26.566Z,24.50
2019-05-30T17:21:27.945Z,22.90
2019-05-30T17:23:31.129Z,24.10
2019-05-30T17:25:35.369Z,22.07
2019-05-30T17:27:36.798Z,22.87
2019-05-30T17:29:38.113Z,22.70
2019-05-30T17:31:39.490Z,23.05
2019-05-30T17:33:40.764Z,23.45
2019-05-30T17:35:42.040Z,22.35
2019-05-30T17:37:43.313Z,23.32
2019-05-30T17:39:44.576Z,23.00
2019-05-30T17:41:46.089Z,24.37
2019-05-30T17:43:47.438Z,22.20
2019-05-30T17:45:48.710Z,20.90
2019-05-30T17:47:59.498Z,21.52
2019-05-30T17:49:54.234Z,24.85
2019-05-30T17:51:55.509Z,19.70
2019-05-30T17:53:56.942Z,21.82
2019-05-30T17:55:59.514Z,20.62
2019-05-30T17:58:00.883Z,18.57
2019-05-30T18:00:08.631Z,20.62
2019-05-30T18:02:10.028Z,19.50
2019-05-30T18:04:11.600Z,19.42
2019-05-30T18:08:15.360Z,19.07
2019-05-30T18:10:17.406Z,19.45
2019-05-30T18:12:18.684Z,25.17
2019-05-30T18:14:25.179Z,21.30
2019-05-30T18:16:27.147Z,19.50
2019-05-30T18:18:32.778Z,21.95
2019-05-30T18:20:47.588Z,22.27
2019-05-30T18:22:37.406Z,19.70
2019-05-30T18:24:38.678Z,21.87
2019-05-30T18:26:40.514Z,18.55
2019-05-30T18:30:43.235Z,18.57
2019-05-30T18:34:45.919Z,20.68
2019-05-30T18:38:48.833Z,21.35
2019-05-30T18:42:51.263Z,21.20
2019-05-30T18:44:52.621Z,18.90
2019-05-30T18:46:54.067Z,19.87
2019-05-30T18:50:57.719Z,18.27
2019-05-30T18:52:59.015Z,17.73
2019-05-30T18:55:00.293Z,20.65
2019-05-30T18:57:01.638Z,20.23
2019-05-30T18:59:03.135Z,19.25
2019-05-30T19:01:04.903Z,18.40
2019-05-30T19:03:06.266Z,18.65
2019-05-30T19:05:07.782Z,17.55
2019-05-30T19:09:10.421Z,21.82
2019-05-30T19:11:26.649Z,21.12
2019-05-30T19:13:14.867Z,20.62
2019-05-30T19:15:17.263Z,22.67
2019-05-30T19:19:20.257Z,19.55
2019-05-30T19:21:21.540Z,18.48
2019-05-30T19:23:22.899Z,18.62
2019-05-30T19:25:27.289Z,15.43
2019-05-30T19:27:32.061Z,15.05
2019-05-30T19:29:34.902Z,18.32
2019-05-30T19:31:37.069Z,17.67
2019-05-30T19:33:38.542Z,18.00
2019-05-30T19:35:39.831Z,19.62
2019-05-30T19:37:41.186Z,15.80
2019-05-30T19:39:42.463Z,18.37
2019-05-30T19:41:56.361Z,15.15
2019-05-30T19:43:47.216Z,18.32
2019-05-30T19:45:49.638Z,17.92
2019-05-30T19:47:52.917Z,17.32
2019-05-30T19:49:56.116Z,18.00
2019-05-30T19:51:57.714Z,17.80
2019-05-30T19:56:01.354Z,13.93
2019-05-30T19:58:02.834Z,17.48
2019-05-30T20:00:06.510Z,17.80
2019-05-30T20:02:10.372Z,16.52
2019-05-30T20:04:11.790Z,15.30
2019-05-30T20:06:13.330Z,17.77
2019-05-30T20:10:16.164Z,15.20
2019-05-30T20:12:17.551Z,15.88
2019-05-30T20:14:18.823Z,16.60
2019-05-30T20:16:20.091Z,16.23
2019-05-30T20:18:21.466Z,16.02
2019-05-30T20:20:23.038Z,15.13
2019-05-30T20:24:25.518Z,14.43
2019-05-30T20:26:26.898Z,15.08
2019-05-30T20:28:30.075Z,15.00
2019-05-30T20:30:31.352Z,16.57
2019-05-30T20:32:32.626Z,17.07
2019-05-30T20:34:34.823Z,14.33
2019-05-30T20:36:36.475Z,17.55
2019-05-30T20:38:38.663Z,17.87
2019-05-30T20:40:40.941Z,15.58
2019-05-30T20:42:43.062Z,15.10
2019-05-30T20:44:44.500Z,16.15
2019-05-30T20:46:45.762Z,16.07
2019-05-30T20:48:47.710Z,13.45
2019-05-30T20:50:49.118Z,14.13
2019-05-30T20:52:50.525Z,14.60
2019-05-30T20:54:51.790Z,14.15
2019-05-30T20:56:53.057Z,14.30
2019-05-30T20:58:54.325Z,14.68
2019-05-30T21:00:55.865Z,14.87
2019-05-30T21:02:57.147Z,12.93
2019-05-30T21:04:58.452Z,13.25
2019-05-30T21:07:00.113Z,15.53
2019-05-30T21:09:01.938Z,12.78
2019-05-30T21:11:06.985Z,13.45
2019-05-30T21:13:08.251Z,12.43
2019-05-30T21:15:09.657Z,14.55
2019-05-30T21:17:12.336Z,12.25
2019-05-30T21:19:13.887Z,14.10
2019-05-30T21:23:16.345Z,10.67
2019-05-30T21:25:18.538Z,11.97
2019-05-30T21:27:19.806Z,10.72
2019-05-30T21:29:21.327Z,13.22
2019-05-30T21:33:23.820Z,13.40
2019-05-30T21:35:25.241Z,14.10
2019-05-30T21:39:31.385Z,11.48
2019-05-30T21:41:32.789Z,13.62
2019-05-30T21:43:34.159Z,14.93
2019-05-30T21:45:38.265Z,12.65
2019-05-30T21:47:40.766Z,13.28
2019-05-30T21:49:42.913Z,13.32
2019-05-30T21:51:45.439Z,14.73
2019-05-30T21:53:47.677Z,15.13
2019-05-30T21:55:50.156Z,15.68
2019-05-30T21:57:51.551Z,14.63
2019-05-30T21:59:53.177Z,14.03
2019-05-30T22:03:57.496Z,14.05
2019-05-30T22:05:58.762Z,14.07
2019-05-30T22:08:00.035Z,17.52
2019-05-30T22:10:01.698Z,14.07
2019-05-30T22:12:04.580Z,13.83
2019-05-30T22:14:06.154Z,16.10
2019-05-30T22:16:07.679Z,13.18
2019-05-30T22:18:10.858Z,13.62
2019-05-30T22:20:14.040Z,14.23
2019-05-30T22:22:15.318Z,13.80
2019-05-30T22:24:16.596Z,14.60
2019-05-30T22:26:19.179Z,14.05
2019-05-30T22:28:20.437Z,13.75
2019-05-30T22:30:23.607Z,14.28
2019-05-30T22:32:24.983Z,15.40
2019-05-30T22:34:26.359Z,15.23
2019-05-30T22:36:27.989Z,13.85
2019-05-30T22:40:30.408Z,12.70
2019-05-30T22:42:33.278Z,17.02
2019-05-30T22:44:34.550Z,14.73
2019-05-30T22:46:35.861Z,13.03
2019-05-30T22:48:37.135Z,13.18
2019-05-30T22:50:38.513Z,12.13
2019-05-30T22:52:39.790Z,11.68
2019-05-30T22:54:41.300Z,10.48
2019-05-30T22:56:45.451Z,7.75
2019-05-30T22:58:47.827Z,9.00
2019-05-30T23:00:49.967Z,11.48
2019-05-30T23:02:52.387Z,7.47
2019-05-30T23:04:56.321Z,10.58
2019-05-30T23:06:59.643Z,12.35
2019-05-30T23:09:01.013Z,10.75
2019-05-30T23:11:02.682Z,16.67
2019-05-30T23:15:06.065Z,12.68
2019-05-30T23:17:07.338Z,13.58
2019-05-30T23:19:08.713Z,14.63
2019-05-30T23:21:11.886Z,13.48
2019-05-30T23:23:13.474Z,13.95
2019-05-30T23:25:16.633Z,11.28
2019-05-30T23:27:18.173Z,11.97
2019-05-30T23:31:20.577Z,11.83
2019-05-30T23:33:22.869Z,11.03
2019-05-30T23:35:24.145Z,12.55
2019-05-30T23:37:25.834Z,10.43
2019-05-30T23:39:27.097Z,10.60
2019-05-30T23:41:30.511Z,10.20
2019-05-30T23:43:32.091Z,11.03
2019-05-30T23:45:33.351Z,11.45
2019-05-30T23:47:35.405Z,11.88
2019-05-30T23:49:36.833Z,11.60
2019-05-30T23:51:38.106Z,9.93
2019-05-30T23:53:39.386Z,11.40
2019-05-30T23:55:40.924Z,9.95
2019-05-30T23:59:43.355Z,11.53
